createdAt,value
2022-09-20T00:02:32.540Z,2.63
2022-09-20T00:07:34.537Z,2.63
2022-09-20T00:12:36.267Z,2.30
2022-09-20T00:17:37.917Z,2.53
2022-09-20T00:22:39.655Z,2.28
2022-09-20T00:27:41.354Z,2.58
2022-09-20T00:32:43.229Z,2.50
2022-09-20T00:37:44.938Z,2.30
2022-09-20T00:42:48.176Z,2.25
2022-09-20T00:48:02.216Z,2.47
2022-09-20T00:53:12.670Z,2.40
2022-09-20T00:58:15.862Z,2.28
2022-09-20T01:03:22.838Z,3.00
2022-09-20T01:08:25.318Z,2.58
2022-09-20T01:13:26.996Z,2.25
2022-09-20T01:18:31.740Z,2.80
2022-09-20T01:23:56.367Z,2.70
2022-09-20T01:29:32.026Z,2.60
2022-09-20T01:34:35.268Z,2.67
2022-09-20T01:40:06.256Z,2.20
2022-09-20T01:45:16.592Z,2.63
2022-09-20T01:50:30.543Z,2.70
2022-09-20T01:55:57.814Z,2.83
2022-09-20T02:01:38.754Z,2.70
2022-09-20T02:07:10.923Z,2.78
2022-09-20T02:12:49.677Z,2.75
2022-09-20T02:17:57.328Z,2.83
2022-09-20T02:23:09.067Z,2.50
2022-09-20T02:28:32.372Z,3.00
2022-09-20T02:34:06.876Z,3.03
2022-09-20T02:39:44.533Z,3.83
2022-09-20T02:44:59.140Z,3.30
2022-09-20T02:50:23.236Z,3.30
2022-09-20T02:56:02.072Z,3.17
2022-09-20T03:01:30.882Z,3.55
2022-09-20T03:06:38.380Z,3.47
2022-09-20T03:12:19.965Z,4.07
2022-09-20T03:17:52.523Z,3.70
2022-09-20T03:23:12.927Z,3.65
2022-09-20T03:29:04.061Z,3.65
2022-09-20T03:34:24.358Z,4.00
2022-09-20T03:39:45.808Z,3.33
2022-09-20T03:44:53.379Z,4.32
2022-09-20T03:50:18.816Z,3.58
2022-09-20T03:55:44.793Z,3.58
2022-09-20T04:01:10.635Z,3.95
2022-09-20T04:06:30.115Z,4.45
2022-09-20T04:11:42.681Z,3.80
2022-09-20T04:17:03.438Z,3.97
2022-09-20T04:22:07.407Z,4.30
2022-09-20T04:27:14.225Z,2.97
2022-09-20T04:32:36.635Z,4.07
2022-09-20T04:37:39.623Z,4.13
2022-09-20T04:43:18.799Z,4.05
2022-09-20T04:48:36.679Z,4.70
2022-09-20T04:53:54.498Z,4.55
2022-09-20T04:59:06.349Z,4.70
2022-09-20T05:04:10.871Z,4.30
2022-09-20T05:09:32.397Z,3.97
2022-09-20T05:15:11.564Z,4.35
2022-09-20T05:20:25.194Z,5.57
2022-09-20T05:26:03.781Z,5.38
2022-09-20T05:31:44.759Z,5.15
2022-09-20T05:36:52.872Z,5.70
2022-09-20T05:41:56.808Z,5.68
2022-09-20T05:47:19.152Z,6.13
2022-09-20T05:52:51.255Z,5.35
2022-09-20T05:58:13.937Z,5.53
2022-09-20T06:03:37.198Z,6.38
2022-09-20T06:09:10.637Z,6.32
2022-09-20T06:14:31.921Z,5.93
2022-09-20T06:20:04.656Z,5.90
2022-09-20T06:25:09.405Z,6.30
2022-09-20T06:30:18.686Z,6.13
2022-09-20T06:35:24.192Z,5.63
2022-09-20T06:40:50.469Z,5.70
2022-09-20T06:45:52.308Z,5.53
2022-09-20T06:50:53.988Z,5.22
2022-09-20T06:55:56.658Z,5.63
2022-09-20T07:00:58.410Z,5.90
2022-09-20T07:06:00.544Z,6.07
2022-09-20T07:11:12.150Z,6.32
2022-09-20T07:16:15.015Z,6.70
2022-09-20T07:21:18.725Z,8.25
2022-09-20T07:26:23.997Z,9.43
2022-09-20T07:31:27.803Z,9.25
2022-09-20T07:36:29.524Z,11.90
2022-09-20T07:41:31.869Z,10.55
2022-09-20T07:46:39.329Z,11.30
2022-09-20T07:51:40.977Z,11.07
2022-09-20T07:56:43.306Z,12.05
2022-09-20T08:01:45.145Z,12.18
2022-09-20T08:06:46.947Z,10.57
2022-09-20T08:11:49.386Z,9.50
2022-09-20T08:16:52.065Z,8.90
2022-09-20T08:21:54.268Z,7.78
2022-09-20T08:26:56.772Z,6.65
2022-09-20T08:32:00.186Z,6.47
2022-09-20T08:37:02.068Z,5.38
2022-09-20T08:42:44.429Z,4.97
2022-09-20T08:47:57.778Z,3.60
2022-09-20T08:53:05.668Z,3.43
2022-09-20T08:58:14.680Z,3.00
2022-09-20T09:03:17.971Z,3.72
2022-09-20T09:08:28.012Z,3.05
2022-09-20T09:13:42.843Z,3.20
2022-09-20T09:18:46.641Z,3.15
2022-09-20T09:23:57.860Z,3.00
2022-09-20T09:29:11.485Z,3.17
2022-09-20T09:34:30.997Z,2.45
2022-09-20T09:39:37.957Z,2.45
2022-09-20T09:44:39.643Z,2.28
2022-09-20T09:50:00.763Z,1.70
2022-09-20T09:55:05.882Z,1.73
2022-09-20T10:00:21.425Z,2.33
2022-09-20T10:05:47.381Z,1.65
2022-09-20T10:11:08.028Z,1.70
2022-09-20T10:16:32.178Z,1.92
2022-09-20T10:22:13.057Z,2.47
2022-09-20T10:27:38.772Z,1.95
2022-09-20T10:33:02.608Z,2.00
2022-09-20T10:38:26.189Z,2.38
2022-09-20T10:43:40.217Z,1.80
2022-09-20T10:48:51.533Z,1.98
2022-09-20T10:54:17.750Z,2.22
2022-09-20T10:59:29.287Z,2.00
2022-09-20T11:04:34.137Z,1.90
2022-09-20T11:09:42.225Z,2.47
2022-09-20T11:14:53.832Z,1.92
2022-09-20T11:20:07.835Z,1.88
2022-09-20T11:25:23.989Z,2.08
2022-09-20T11:30:45.298Z,2.28
2022-09-20T11:35:52.904Z,1.95
2022-09-20T11:41:11.773Z,1.52
2022-09-20T11:46:21.423Z,2.15
2022-09-20T11:51:45.260Z,2.05
2022-09-20T11:56:53.824Z,1.70
2022-09-20T12:02:00.270Z,1.50
2022-09-20T12:07:18.046Z,1.80
2022-09-20T12:12:45.466Z,1.70
2022-09-20T12:17:47.244Z,1.77
2022-09-20T12:22:49.054Z,1.30
2022-09-20T12:27:51.151Z,1.40
2022-09-20T12:32:58.464Z,1.98
2022-09-20T12:38:19.682Z,1.92
2022-09-20T12:43:22.508Z,1.63
2022-09-20T12:48:25.229Z,1.77
2022-09-20T12:53:26.972Z,2.20
2022-09-20T12:58:40.171Z,2.10
2022-09-20T13:03:44.371Z,1.88
2022-09-20T13:09:01.311Z,1.60
2022-09-20T13:14:08.687Z,1.50
2022-09-20T13:19:30.594Z,1.90
2022-09-20T13:24:41.815Z,1.70
2022-09-20T13:29:45.269Z,1.30
2022-09-20T13:35:04.157Z,1.30
2022-09-20T13:40:06.714Z,1.48
2022-09-20T13:45:13.856Z,1.10
2022-09-20T13:50:22.994Z,1.13
2022-09-20T13:55:34.480Z,1.27
2022-09-20T14:00:43.621Z,1.08
2022-09-20T14:05:54.786Z,1.20
2022-09-20T14:11:21.715Z,1.25
2022-09-20T14:16:28.517Z,1.58
2022-09-20T14:21:33.225Z,1.08
2022-09-20T14:26:36.669Z,1.00
2022-09-20T14:31:45.498Z,1.50
2022-09-20T14:36:49.532Z,1.48
2022-09-20T14:41:51.184Z,1.42
2022-09-20T14:46:54.256Z,1.48
2022-09-20T14:52:32.014Z,1.85
2022-09-20T14:57:33.629Z,1.33
2022-09-20T15:02:36.447Z,1.30
2022-09-20T15:07:38.099Z,1.17
2022-09-20T15:12:39.791Z,1.13
2022-09-20T15:17:42.630Z,1.08
2022-09-20T15:22:44.497Z,0.90
2022-09-20T15:27:47.101Z,1.30
2022-09-20T15:32:48.848Z,0.70
2022-09-20T15:37:50.760Z,1.10
2022-09-20T15:42:58.117Z,1.00
2022-09-20T15:47:59.833Z,1.15
2022-09-20T15:53:01.584Z,0.90
2022-09-20T15:58:03.950Z,1.10
2022-09-20T16:03:05.662Z,0.85
2022-09-20T16:08:07.480Z,0.85
2022-09-20T16:13:09.261Z,0.85
2022-09-20T16:18:31.264Z,1.10
2022-09-20T16:23:32.881Z,1.17
2022-09-20T16:28:34.621Z,1.25
2022-09-20T16:33:36.301Z,1.33
2022-09-20T16:38:38.772Z,1.02
2022-09-20T16:43:41.261Z,1.15
2022-09-20T16:48:43.677Z,1.70
2022-09-20T16:53:45.418Z,1.77
2022-09-20T16:58:48.059Z,1.45
2022-09-20T17:03:49.798Z,1.25
2022-09-20T17:08:59.029Z,1.60
2022-09-20T17:14:01.322Z,1.50
2022-09-20T17:19:15.475Z,1.95
2022-09-20T17:24:19.127Z,2.17
2022-09-20T17:29:21.207Z,1.63
2022-09-20T17:34:23.789Z,1.83
2022-09-20T17:39:25.577Z,1.50
2022-09-20T17:44:28.073Z,2.40
2022-09-20T17:49:31.269Z,1.50
2022-09-20T17:54:32.987Z,1.60
2022-09-20T17:59:36.605Z,1.67
2022-09-20T18:04:38.291Z,2.30
2022-09-20T18:09:39.967Z,1.90
2022-09-20T18:14:41.767Z,2.00
2022-09-20T18:19:44.541Z,1.90
2022-09-20T18:24:46.281Z,2.28
2022-09-20T18:29:47.912Z,3.25
2022-09-20T18:34:51.193Z,3.20
2022-09-20T18:39:53.083Z,2.80
2022-09-20T18:44:54.786Z,3.88
2022-09-20T18:49:56.429Z,3.88
2022-09-20T18:54:58.662Z,3.80
2022-09-20T19:00:04.121Z,3.70
2022-09-20T19:05:35.563Z,4.47
2022-09-20T19:10:58.192Z,3.92
2022-09-20T19:16:23.461Z,4.78
2022-09-20T19:21:31.041Z,5.85
2022-09-20T19:26:38.509Z,6.63
2022-09-20T19:31:40.458Z,5.18
2022-09-20T19:37:06.704Z,5.00
2022-09-20T19:42:19.916Z,5.40
2022-09-20T19:47:57.532Z,5.10
2022-09-20T19:53:04.066Z,5.40
2022-09-20T19:58:06.237Z,5.72
2022-09-20T20:03:10.555Z,5.05
2022-09-20T20:13:52.208Z,4.32
2022-09-20T20:19:17.782Z,4.25
2022-09-20T20:24:54.151Z,5.45
2022-09-20T20:29:56.354Z,4.35
2022-09-20T20:34:58.000Z,5.07
2022-09-20T20:39:59.739Z,4.63
2022-09-20T20:45:01.664Z,4.85
2022-09-20T20:50:03.704Z,4.55
2022-09-20T20:55:06.236Z,3.70
2022-09-20T21:00:08.594Z,3.80
2022-09-20T21:05:10.299Z,4.45
2022-09-20T21:10:12.676Z,4.15
2022-09-20T21:15:14.756Z,4.10
2022-09-20T21:20:16.509Z,3.85
2022-09-20T21:25:18.235Z,3.83
2022-09-20T21:30:20.507Z,3.38
2022-09-20T21:35:24.029Z,3.80
2022-09-20T21:40:26.074Z,3.50
2022-09-20T21:45:29.496Z,3.90
2022-09-20T21:50:31.200Z,3.95
2022-09-20T21:55:34.145Z,4.15
2022-09-20T22:00:36.243Z,4.50
2022-09-20T22:05:37.974Z,4.20
2022-09-20T22:10:39.651Z,4.38
2022-09-20T22:15:41.331Z,3.97
2022-09-20T22:20:43.183Z,4.03
2022-09-20T22:25:44.851Z,3.65
2022-09-20T22:30:46.539Z,4.47
2022-09-20T22:35:48.296Z,4.30
2022-09-20T22:40:54.638Z,3.70
2022-09-20T22:46:03.301Z,3.78
2022-09-20T22:51:13.564Z,4.18
2022-09-20T22:56:18.392Z,3.72
2022-09-20T23:01:24.219Z,3.90
2022-09-20T23:06:35.782Z,3.78
2022-09-20T23:11:39.218Z,4.57
2022-09-20T23:16:41.278Z,4.20
2022-09-20T23:21:44.046Z,4.25
2022-09-20T23:26:45.916Z,4.20
2022-09-20T23:31:47.835Z,4.20
2022-09-20T23:36:49.547Z,3.65
2022-09-20T23:41:51.544Z,4.10
2022-09-20T23:46:53.294Z,4.50
2022-09-20T23:51:54.967Z,4.32
2022-09-20T23:56:56.650Z,4.32
